Time;durP1;ratioP1;P1;durP2;ratioP2;P2;SDS_P1;SDS_P2;PMS_P1;PMS_P2;Temp;Humidity;BMP_temperature;BMP_pressure;BME280_temperature;BME280_humidity;BME280_pressure;Samples;Min_cycle;Max_cycle;Signal;HPM_P1;HPM_P2
2020/12/03 00:02:01;;;;;;;1999.90;999.90;;;;;;;-3.79;86.40;98272.34;5041258;28;20053;-62
2020/12/03 00:04:28;;;;;;;1999.90;999.90;;;;;;;-3.66;86.18;98265.88;5041387;28;20536;-62
2020/12/03 00:06:57;;;;;;;1999.90;999.90;;;;;;;-4.56;88.23;98251.53;5041748;28;20103;-62
2020/12/03 00:09:24;;;;;;;1999.90;999.90;;;;;;;-4.20;90.44;98257.03;5042577;28;20063;-62
2020/12/03 00:11:57;;;;;;;1999.90;999.90;;;;;;;-4.45;90.43;98249.91;5041801;28;20136;-62
2020/12/03 00:14:24;;;;;;;1999.90;999.90;;;;;;;-4.18;91.91;98233.28;5042114;28;20049;-62
2020/12/03 00:16:52;;;;;;;1999.90;999.90;;;;;;;-3.74;89.63;98239.19;5038567;28;20318;-62
2020/12/03 00:19:22;;;;;;;1999.90;999.90;;;;;;;-3.50;88.31;98237.28;5037632;28;20079;-62
2020/12/03 00:21:59;;;;;;;1999.90;999.90;;;;;;;-4.20;88.66;98230.00;5026760;28;20053;-62
2020/12/03 00:24:28;;;;;;;1999.90;999.90;;;;;;;-4.19;89.62;98227.06;5026602;28;20629;-62
2020/12/03 00:26:54;;;;;;;1999.90;999.90;;;;;;;-4.48;90.60;98236.88;5038978;28;20045;-62
2020/12/03 00:29:22;;;;;;;1999.90;999.90;;;;;;;-4.04;89.28;98229.31;5039227;28;20175;-62
2020/12/03 00:31:50;;;;;;;1999.90;999.90;;;;;;;-4.44;89.34;98233.50;5044341;28;20048;-62
2020/12/03 00:34:18;;;;;;;1999.90;999.90;;;;;;;-3.99;89.13;98218.66;5039880;28;20499;-62
2020/12/03 00:36:45;;;;;;;1999.90;999.90;;;;;;;-4.08;88.40;98231.69;5038043;28;20052;-63
2020/12/03 00:39:15;;;;;;;1999.90;999.90;;;;;;;-3.68;88.39;98219.34;5028422;28;20127;-62
2020/12/03 00:41:48;;;;;;;1999.90;999.90;;;;;;;-3.13;86.15;98215.34;5025097;28;20460;-62
2020/12/03 00:44:14;;;;;;;1999.90;999.90;;;;;;;-2.74;83.64;98212.88;5024646;28;20057;-63
2020/12/03 00:46:40;;;;;;;1999.90;999.90;;;;;;;-2.97;83.59;98210.25;5029149;28;20095;-63
2020/12/03 00:49:06;;;;;;;1999.90;999.90;;;;;;;-3.19;84.02;98211.75;5033442;28;20493;-62
2020/12/03 00:51:32;;;;;;;1999.90;999.90;;;;;;;-3.15;83.79;98217.47;5038036;28;20053;-62
2020/12/03 00:53:58;;;;;;;1999.90;999.90;;;;;;;-2.92;83.58;98216.56;5033395;28;20570;-63
2020/12/03 00:56:24;;;;;;;1999.90;999.90;;;;;;;-3.03;82.93;98217.44;5040300;28;20444;-63
2020/12/03 00:58:51;;;;;;;1999.90;999.90;;;;;;;-3.01;82.47;98212.59;5040837;28;20122;-63
2020/12/03 01:01:19;;;;;;;1999.90;999.90;;;;;;;-3.01;82.86;98213.44;5038609;28;20099;-62
2020/12/03 01:03:46;;;;;;;1999.90;999.90;;;;;;;-2.81;82.82;98205.94;5040806;28;20044;-62
2020/12/03 01:06:12;;;;;;;1999.90;999.90;;;;;;;-3.21;82.21;98211.13;5040433;28;20053;-62
2020/12/03 01:08:39;;;;;;;1999.90;999.90;;;;;;;-3.47;82.78;98198.16;5037368;28;20049;-63
2020/12/03 01:11:05;;;;;;;1999.90;999.90;;;;;;;-3.08;82.21;98184.88;5037318;28;20126;-63
2020/12/03 01:13:31;;;;;;;1999.90;999.90;;;;;;;-3.06;82.39;98188.97;5038245;28;20053;-62
2020/12/03 01:15:58;;;;;;;1999.90;999.90;;;;;;;-2.86;81.44;98188.56;5043214;28;20389;-63
2020/12/03 01:18:24;;;;;;;1999.90;999.90;;;;;;;-3.72;83.39;98188.44;5043960;28;20488;-62
2020/12/03 01:20:51;;;;;;;1999.90;999.90;;;;;;;-3.74;85.35;98182.44;5039234;28;20524;-63
2020/12/03 01:23:17;;;;;;;1999.90;999.90;;;;;;;-3.92;85.42;98178.81;5039641;28;20057;-62
2020/12/03 01:25:43;;;;;;;1999.90;999.90;;;;;;;-3.73;85.61;98181.41;5043695;28;20041;-63
2020/12/03 01:28:09;;;;;;;1999.90;999.90;;;;;;;-3.63;84.91;98169.97;5043953;28;20057;-63
2020/12/03 01:30:35;;;;;;;1999.90;999.90;;;;;;;-3.63;86.18;98168.09;5047154;28;20060;-63
2020/12/03 01:33:02;;;;;;;1999.90;999.90;;;;;;;-3.27;84.15;98171.53;5041792;28;20057;-63
2020/12/03 01:35:28;;;;;;;1999.90;999.90;;;;;;;-3.58;84.88;98175.50;5038004;28;20535;-63
2020/12/03 01:37:54;;;;;;;1999.90;999.90;;;;;;;-3.61;85.36;98182.19;5040911;28;20615;-62
2020/12/03 01:40:23;;;;;;;1999.90;999.90;;;;;;;-3.42;85.25;98185.56;5025788;28;20053;-63
2020/12/03 01:42:52;;;;;;;1999.90;999.90;;;;;;;-2.95;84.43;98184.56;5028895;28;20089;-63
2020/12/03 01:45:48;;;;;;;1999.90;999.90;;;;;;;-2.44;82.08;98167.59;5040066;28;20057;-63
2020/12/03 01:48:18;;;;;;;1999.90;999.90;;;;;;;-2.22;80.41;98163.09;5045209;28;20075;-63
2020/12/03 01:50:45;;;;;;;1999.90;999.90;;;;;;;-2.38;78.95;98158.47;5047323;28;20067;-62
2020/12/03 01:53:14;;;;;;;1999.90;999.90;;;;;;;-2.53;78.98;98159.91;5044288;28;20501;-63
2020/12/03 01:55:40;;;;;;;1999.90;999.90;;;;;;;-2.45;78.76;98155.16;5044424;28;20071;-63
2020/12/03 01:58:15;;;;;;;1999.90;999.90;;;;;;;-2.74;78.95;98149.75;5043928;28;20044;-63
2020/12/03 02:00:41;;;;;;;1999.90;999.90;;;;;;;-2.90;79.50;98149.50;5041406;28;20049;-63
2020/12/03 02:03:07;;;;;;;1999.90;999.90;;;;;;;-3.44;81.30;98151.72;5042168;28;20099;-63
2020/12/03 02:05:33;;;;;;;1999.90;999.90;;;;;;;-3.58;81.81;98143.88;5046254;28;20078;-62
2020/12/03 02:07:59;;;;;;;1999.90;999.90;;;;;;;-3.65;82.52;98136.94;5047151;28;20524;-63
2020/12/03 02:10:25;;;;;;;1999.90;999.90;;;;;;;-3.23;81.72;98140.25;5034599;28;20057;-63
2020/12/03 02:12:52;;;;;;;1999.90;999.90;;;;;;;-3.19;81.48;98133.28;5045399;28;20110;-63
2020/12/03 02:15:20;;;;;;;1999.90;999.90;;;;;;;-2.90;80.81;98138.69;5046845;28;20053;-63
2020/12/03 02:17:47;;;;;;;1999.90;999.90;;;;;;;-2.75;79.58;98123.78;5047065;28;20048;-62
2020/12/03 02:20:17;;;;;;;1999.90;999.90;;;;;;;-2.85;79.87;98124.41;5043568;28;20045;-63
2020/12/03 02:22:44;;;;;;;1999.90;999.90;;;;;;;-3.57;81.51;98123.91;5047407;28;20049;-63
2020/12/03 02:25:11;;;;;;;1999.90;999.90;;;;;;;-3.47;82.49;98138.66;5046874;28;20114;-63
2020/12/03 02:27:39;;;;;;;1999.90;999.90;;;;;;;-3.30;82.84;98139.56;5046992;28;20136;-62
2020/12/03 02:30:07;;;;;;;1999.90;999.90;;;;;;;-3.26;83.01;98121.78;5046706;28;20060;-62
2020/12/03 02:32:33;;;;;;;1999.90;999.90;;;;;;;-3.30;82.82;98120.63;5032178;28;20052;-62
2020/12/03 02:34:59;;;;;;;1999.90;999.90;;;;;;;-3.61;84.23;98120.03;5046524;28;20049;-63
2020/12/03 02:37:27;;;;;;;1999.90;999.90;;;;;;;-3.38;83.88;98115.59;5032417;28;20071;-62
2020/12/03 02:39:54;;;;;;;1999.90;999.90;;;;;;;-3.62;84.44;98118.38;5046492;28;20045;-63
2020/12/03 02:42:20;;;;;;;1999.90;999.90;;;;;;;-3.47;84.24;98112.44;5046503;28;20585;-62
2020/12/03 02:44:48;;;;;;;1999.90;999.90;;;;;;;-4.10;86.59;98116.81;5038632;28;20076;-63
2020/12/03 02:47:19;;;;;;;1999.90;999.90;;;;;;;-4.09;86.82;98105.78;5026523;28;20107;-62
2020/12/03 02:49:47;;;;;;;1999.90;999.90;;;;;;;-3.96;86.88;98104.72;5026862;28;20485;-62
2020/12/03 02:52:16;;;;;;;1999.90;999.90;;;;;;;-4.37;87.43;98079.50;5050602;28;20057;-62
2020/12/03 02:54:43;;;;;;;1999.90;999.90;;;;;;;-4.33;88.29;98088.78;5029400;28;20575;-62
2020/12/03 02:57:09;;;;;;;1999.90;999.90;;;;;;;-4.01;87.04;98082.16;5036346;28;20334;-62
2020/12/03 02:59:36;;;;;;;1999.90;999.90;;;;;;;-4.42;87.30;98082.91;5041214;28;20053;-62
2020/12/03 03:02:03;;;;;;;1999.90;999.90;;;;;;;-4.33;86.20;98082.53;5027369;28;20136;-62
2020/12/03 03:04:29;;;;;;;1999.90;999.90;;;;;;;-3.87;85.83;98074.63;5041148;28;20049;-62
2020/12/03 03:06:55;;;;;;;1999.90;999.90;;;;;;;-4.53;86.76;98072.13;5027162;28;20536;-62
2020/12/03 03:09:22;;;;;;;1999.90;999.90;;;;;;;-4.39;88.07;98064.59;5027277;28;20536;-61
2020/12/03 03:11:50;;;;;;;1999.90;999.90;;;;;;;-3.96;87.69;98063.34;5044496;28;20044;-61
2020/12/03 03:14:17;;;;;;;1999.90;999.90;;;;;;;-3.57;86.45;98060.91;5045918;28;20045;-62
2020/12/03 03:16:44;;;;;;;1999.90;999.90;;;;;;;-4.27;87.16;98060.84;5031779;28;20562;-62
2020/12/03 03:19:12;;;;;;;1999.90;999.90;;;;;;;-4.18;90.11;98064.00;5035861;28;20065;-62
2020/12/03 03:21:38;;;;;;;1999.90;999.90;;;;;;;-3.80;87.75;98054.50;5027626;28;20053;-62
2020/12/03 03:24:05;;;;;;;1999.90;999.90;;;;;;;-3.98;88.36;98038.47;5037820;28;20049;-62
2020/12/03 03:26:31;;;;;;;1999.90;999.90;;;;;;;-4.73;89.86;98030.09;5039531;28;20492;-62
2020/12/03 03:28:57;;;;;;;1999.90;999.90;;;;;;;-4.95;92.38;98019.88;5039337;28;20084;-62
2020/12/03 03:31:23;;;;;;;1999.90;999.90;;;;;;;-4.77;91.64;98028.94;5025998;28;20765;-62
2020/12/03 03:33:49;;;;;;;1999.90;999.90;;;;;;;-4.50;92.37;98033.84;5039585;28;20053;-62
2020/12/03 03:36:16;;;;;;;1999.90;999.90;;;;;;;-4.28;90.89;98037.56;5036552;28;20048;-62
2020/12/03 03:38:43;;;;;;;1999.90;999.90;;;;;;;-4.53;90.67;98031.63;5031625;28;20072;-62
2020/12/03 03:41:09;;;;;;;1999.90;999.90;;;;;;;-4.36;89.65;98021.75;5045478;28;20049;-62
2020/12/03 03:43:36;;;;;;;1999.90;999.90;;;;;;;-4.33;90.16;98023.97;5045196;28;20050;-62
2020/12/03 03:46:02;;;;;;;1999.90;999.90;;;;;;;-4.45;90.57;98015.06;5045787;28;20087;-62
2020/12/03 03:48:28;;;;;;;1999.90;999.90;;;;;;;-4.48;90.46;98013.69;5045657;28;20049;-62
2020/12/03 03:50:54;;;;;;;1999.90;999.90;;;;;;;-3.99;89.94;98010.66;5035596;28;20103;-62
2020/12/03 03:53:20;;;;;;;1999.90;999.90;;;;;;;-3.85;87.26;98002.25;5038327;28;20049;-63
2020/12/03 03:55:47;;;;;;;1999.90;999.90;;;;;;;-4.25;89.98;97999.28;5032122;28;20467;-63
2020/12/03 03:58:13;;;;;;;1999.90;999.90;;;;;;;-3.74;88.72;97988.69;5030325;28;20455;-63
2020/12/03 04:00:42;;;;;;;1999.90;999.90;;;;;;;-3.65;87.90;97994.50;5030284;28;20116;-63
2020/12/03 04:03:14;;;;;;;1999.90;999.90;;;;;;;-4.09;87.72;98007.75;5035079;28;20201;-63
2020/12/03 04:05:41;;;;;;;1999.90;999.90;;;;;;;-3.64;87.74;97985.34;5034785;28;20046;-63
2020/12/03 04:08:08;;;;;;;1999.90;999.90;;;;;;;-3.62;86.42;97985.09;5042585;28;20102;-63
2020/12/03 04:10:34;;;;;;;1999.90;999.90;;;;;;;-3.86;87.75;97979.00;5029084;28;20056;-63
2020/12/03 04:13:00;;;;;;;1999.90;999.90;;;;;;;-3.86;88.68;97984.41;5043757;28;20048;-63
2020/12/03 04:15:27;;;;;;;1999.90;999.90;;;;;;;-3.79;88.79;97979.69;5044871;28;20057;-63
2020/12/03 04:17:53;;;;;;;1999.90;999.90;;;;;;;-3.70;87.70;97988.22;5045037;28;20118;-63
2020/12/03 04:20:22;;;;;;;1999.90;999.90;;;;;;;-3.91;87.89;97987.81;5030654;28;20621;-63
2020/12/03 04:22:49;;;;;;;1999.90;999.90;;;;;;;-3.95;88.24;97986.66;5044762;28;20060;-63
2020/12/03 04:25:16;;;;;;;1999.90;999.90;;;;;;;-4.19;89.74;97992.13;5040388;28;20084;-63
2020/12/03 04:27:42;;;;;;;1999.90;999.90;;;;;;;-4.86;92.17;97992.56;5024884;28;20053;-63
2020/12/03 04:30:10;;;;;;;1999.90;999.90;;;;;;;-3.82;90.94;97988.28;5038403;28;20059;-63
2020/12/03 04:32:37;;;;;;;1999.90;999.90;;;;;;;-2.76;86.55;97986.78;5025102;28;20050;-63
2020/12/03 04:35:06;;;;;;;1999.90;999.90;;;;;;;-2.80;84.64;98001.88;5024540;28;20058;-63
2020/12/03 04:37:32;;;;;;;1999.90;999.90;;;;;;;-3.57;86.20;97996.03;5031231;28;20355;-63
2020/12/03 04:39:58;;;;;;;1999.90;999.90;;;;;;;-3.80;88.06;97981.53;5044783;28;20577;-63
2020/12/03 04:42:34;;;;;;;1999.90;999.90;;;;;;;-3.61;87.35;97995.69;5044568;28;20056;-63
2020/12/03 04:45:13;;;;;;;1999.90;999.90;;;;;;;-3.72;87.32;97988.47;5045030;28;20439;-63
2020/12/03 04:48:10;;;;;;;1999.90;999.90;;;;;;;-2.87;85.97;97992.06;5030963;28;20041;-63
2020/12/03 04:50:47;;;;;;;1999.90;999.90;;;;;;;-2.90;84.85;97976.31;5033969;28;20049;-63
2020/12/03 04:53:37;;;;;;;1999.90;999.90;;;;;;;-3.09;86.14;97966.81;5034453;28;20057;-63
2020/12/03 04:56:20;;;;;;;1999.90;999.90;;;;;;;-2.69;84.63;97966.59;5033587;28;20106;-63
2020/12/03 04:59:27;;;;;;;1999.90;999.90;;;;;;;-3.50;86.48;97960.72;5034835;28;20059;-63
2020/12/03 05:02:03;;;;;;;1999.90;999.90;;;;;;;-2.88;85.38;97954.41;5019829;28;20045;-63
2020/12/03 05:04:59;;;;;;;1999.90;999.90;;;;;;;-2.39;84.41;97956.44;5044124;28;20118;-63
2020/12/03 05:07:29;;;;;;;1999.90;999.90;;;;;;;-2.69;83.06;97965.78;5035168;28;20041;-64
2020/12/03 05:10:19;;;;;;;1999.90;999.90;;;;;;;-2.74;84.22;97954.88;5034310;28;20053;-64
2020/12/03 05:12:46;;;;;;;1999.90;999.90;;;;;;;-3.07;85.41;97959.25;5041006;28;20321;-64
2020/12/03 05:15:20;;;;;;;1999.90;999.90;;;;;;;-3.37;87.17;97949.59;5043410;28;20102;-64
2020/12/03 05:17:55;;;;;;;1999.90;999.90;;;;;;;-2.62;85.56;97958.31;5046555;28;20045;-64
2020/12/03 05:20:40;;;;;;;1999.90;999.90;;;;;;;-2.63;84.28;97956.66;5046169;28;20077;-64
2020/12/03 05:23:09;;;;;;;1999.90;999.90;;;;;;;-2.20;83.27;97954.25;5046627;28;20300;-64
2020/12/03 05:25:35;;;;;;;1999.90;999.90;;;;;;;-2.31;83.34;97939.75;5046279;28;20049;-64
2020/12/03 05:28:25;;;;;;;1999.90;999.90;;;;;;;-2.08;82.34;97937.84;5046973;28;20370;-64
2020/12/03 05:30:55;;;;;;;1999.90;999.90;;;;;;;-2.57;83.57;97931.31;5046475;28;20060;-64
2020/12/03 05:33:24;;;;;;;1999.90;999.90;;;;;;;-2.97;85.29;97937.78;5046216;28;20107;-64
2020/12/03 05:35:51;;;;;;;1999.90;999.90;;;;;;;-3.30;87.31;97920.50;5046323;28;20389;-64
2020/12/03 05:38:22;;;;;;;1999.90;999.90;;;;;;;-4.34;90.14;97919.72;5040539;28;20060;-63
2020/12/03 05:41:05;;;;;;;1999.90;999.90;;;;;;;-3.97;91.71;97915.84;5042837;28;20452;-64
2020/12/03 05:43:32;;;;;;;1999.90;999.90;;;;;;;-3.88;90.88;97911.69;5043513;28;20053;-64
2020/12/03 05:46:02;;;;;;;1999.90;999.90;;;;;;;-3.44;90.21;97905.66;5043006;28;20046;-64
2020/12/03 05:48:28;;;;;;;1999.90;999.90;;;;;;;-2.42;86.38;97909.00;5029795;28;20057;-64
2020/12/03 05:50:57;;;;;;;1999.90;999.90;;;;;;;-2.60;85.22;97909.34;5045808;28;20049;-64
2020/12/03 05:53:28;;;;;;;1999.90;999.90;;;;;;;-2.40;84.82;97903.34;5046327;28;20492;-64
2020/12/03 05:56:19;;;;;;;1999.90;999.90;;;;;;;-2.16;83.25;97903.88;5036422;28;20578;-64
2020/12/03 05:58:46;;;;;;;1999.90;999.90;;;;;;;-2.58;83.91;97908.00;5046709;28;20045;-64
2020/12/03 06:01:22;;;;;;;1999.90;999.90;;;;;;;-2.72;84.62;97907.56;5036419;28;20060;-64
2020/12/03 06:04:05;;;;;;;1999.90;999.90;;;;;;;-2.74;86.51;97908.88;5047420;28;20146;-64
2020/12/03 06:06:59;;;;;;;1999.90;999.90;;;;;;;-2.08;83.34;97913.44;5035118;28;20059;-64
2020/12/03 06:09:31;;;;;;;1999.90;999.90;;;;;;;-2.75;84.82;97907.25;5047529;28;20110;-63
2020/12/03 06:12:21;;;;;;;1999.90;999.90;;;;;;;-2.39;84.93;97894.16;5047562;28;20048;-63
2020/12/03 06:15:15;;;;;;;1999.90;999.90;;;;;;;-2.60;84.74;97890.38;5046858;28;20492;-63
2020/12/03 06:17:50;;;;;;;1999.90;999.90;;;;;;;-2.73;85.35;97895.06;5047471;28;20110;-63
2020/12/03 06:20:56;;;;;;;1999.90;999.90;;;;;;;-3.04;86.58;97893.84;5033439;28;20064;-63
2020/12/03 06:23:43;;;;;;;1999.90;999.90;;;;;;;-2.82;85.72;97899.28;5045939;28;20053;-63
2020/12/03 06:26:19;;;;;;;1999.90;999.90;;;;;;;-2.32;83.89;97894.78;5047382;28;20048;-63
2020/12/03 06:29:02;;;;;;;1999.90;999.90;;;;;;;-2.69;84.38;97876.47;5046577;28;20049;-63
2020/12/03 06:32:03;;;;;;;1999.90;999.90;;;;;;;-1.97;83.21;97879.97;5047276;28;20053;-64
2020/12/03 06:34:35;;;;;;;1999.90;999.90;;;;;;;-2.21;83.40;97874.03;5047314;28;20052;-63
2020/12/03 06:37:14;;;;;;;1999.90;999.90;;;;;;;-2.26;82.51;97876.69;5046533;28;20044;-63
2020/12/03 06:39:48;;;;;;;1999.90;999.90;;;;;;;-2.99;86.56;97872.28;5036223;28;20053;-63
2020/12/03 06:42:26;;;;;;;1999.90;999.90;;;;;;;-2.25;83.96;97876.44;5044355;28;20048;-63
2020/12/03 06:45:02;;;;;;;1999.90;999.90;;;;;;;-2.10;83.13;97864.94;5046608;28;20061;-63
2020/12/03 06:47:46;;;;;;;1999.90;999.90;;;;;;;-1.77;82.65;97863.91;5032794;28;20522;-64
2020/12/03 06:50:48;;;;;;;1999.90;999.90;;;;;;;-2.01;83.48;97870.72;5046761;28;20118;-63
2020/12/03 06:53:14;;;;;;;;;;;;;;;-2.02;83.01;97872.63;5037364;28;20354;-63
2020/12/03 06:56:14;;;;;;;1999.90;999.90;;;;;;;-1.74;82.25;97872.59;5036477;28;20316;-63
2020/12/03 06:59:21;;;;;;;1999.90;999.90;;;;;;;-1.80;81.81;97867.16;5039606;28;20319;-64
2020/12/03 07:02:09;;;;;;;1999.90;999.90;;;;;;;-1.73;82.32;97874.25;5022075;28;20055;-63
2020/12/03 07:04:50;;;;;;;1999.90;999.90;;;;;;;-2.20;83.40;97868.38;5044319;28;20049;-63
2020/12/03 07:07:20;;;;;;;1999.90;999.90;;;;;;;-1.94;83.48;97857.78;5040524;28;20100;-63
2020/12/03 07:10:10;;;;;;;1999.90;999.90;;;;;;;-2.06;83.57;97865.25;5044495;28;20413;-63
2020/12/03 07:12:53;;;;;;;1999.90;999.90;;;;;;;-1.80;82.94;97864.44;5045981;28;20064;-63
2020/12/03 07:15:32;;;;;;;1999.90;999.90;;;;;;;-1.99;84.15;97872.09;5046847;28;20468;-64
2020/12/03 07:18:45;;;;;;;1999.90;999.90;;;;;;;-1.66;83.07;97870.25;5046074;28;20281;-63
2020/12/03 07:21:36;;;;;;;1999.90;999.90;;;;;;;-1.24;81.53;97871.38;5045156;28;20052;-63
2020/12/03 07:24:11;;;;;;;1999.90;999.90;;;;;;;-1.09;80.64;97876.94;5037742;28;20071;-63
2020/12/03 07:26:56;;;;;;;1999.90;999.90;;;;;;;-1.32;81.27;97880.03;5041022;28;20048;-63
2020/12/03 07:29:36;;;;;;;1999.90;999.90;;;;;;;-1.22;81.85;97876.53;5036277;28;20057;-63
2020/12/03 07:32:03;;;;;;;1999.90;999.90;;;;;;;-0.92;80.87;97874.03;5043481;28;20635;-63
2020/12/03 07:34:42;;;;;;;1999.90;999.90;;;;;;;-1.37;82.28;97874.53;5045879;28;20052;-63
2020/12/03 07:37:24;;;;;;;1999.90;999.90;;;;;;;-0.84;81.47;97877.34;5045145;28;20106;-64
2020/12/03 07:39:51;;;;;;;1999.90;999.90;;;;;;;-0.82;81.24;97862.44;5033428;28;20501;-63
2020/12/03 07:42:20;;;;;;;1999.90;999.90;;;;;;;-1.24;81.92;97865.97;5043929;28;20045;-64
2020/12/03 07:44:53;;;;;;;1999.90;999.90;;;;;;;-1.60;83.12;97862.97;5045220;28;20566;-62
2020/12/03 07:47:33;;;;;;;1999.90;999.90;;;;;;;-0.78;81.22;97866.22;5045276;28;20045;-63
2020/12/03 07:50:01;;;;;;;1999.90;999.90;;;;;;;-0.94;81.98;97859.09;5045649;28;20056;-63
2020/12/03 07:52:37;;;;;;;1999.90;999.90;;;;;;;-1.12;82.44;97863.06;5044741;28;20048;-63
2020/12/03 07:55:22;;;;;;;1999.90;999.90;;;;;;;-0.90;81.73;97860.19;5036904;28;20057;-62
2020/12/03 07:57:53;;;;;;;1999.90;999.90;;;;;;;-0.87;82.29;97856.97;5044717;28;20036;-63
2020/12/03 08:00:44;;;;;;;1999.90;999.90;;;;;;;-1.02;82.13;97856.88;5045238;28;20041;-62
2020/12/03 08:03:46;;;;;;;1999.90;999.90;;;;;;;-1.81;84.81;97859.28;5039249;28;20053;-62
2020/12/03 08:06:21;;;;;;;1999.90;999.90;;;;;;;-2.12;85.46;97857.06;5044151;28;20056;-62
2020/12/03 08:09:22;;;;;;;1999.90;999.90;;;;;;;-2.48;89.09;97851.25;5041211;28;20045;-62
2020/12/03 08:11:57;;;;;;;1999.90;999.90;;;;;;;-1.95;87.67;97845.28;5030557;28;20084;-62
2020/12/03 08:14:48;;;;;;;1999.90;999.90;;;;;;;-1.94;86.95;97846.94;5037505;28;20110;-62
2020/12/03 08:17:21;;;;;;;1999.90;999.90;;;;;;;-1.92;86.08;97843.97;5034761;28;20399;-62
2020/12/03 08:20:03;;;;;;;1999.90;999.90;;;;;;;-1.03;84.52;97841.66;5044909;28;20065;-62
2020/12/03 08:22:36;;;;;;;1999.90;999.90;;;;;;;-0.90;82.84;97847.44;5037847;28;20106;-62
2020/12/03 08:25:03;;;;;;;1999.90;999.90;;;;;;;-1.36;83.01;97849.88;5044817;28;20083;-62
2020/12/03 08:27:29;;;;;;;1999.90;999.90;;;;;;;-1.36;84.43;97851.78;5044849;28;20045;-62
2020/12/03 08:29:55;;;;;;;1999.90;999.90;;;;;;;-2.02;86.36;97844.72;5037710;28;20061;-62
2020/12/03 08:32:21;;;;;;;1999.90;999.90;;;;;;;-1.46;85.47;97853.34;5038123;28;20554;-62
2020/12/03 08:34:47;;;;;;;1999.90;999.90;;;;;;;-0.94;83.44;97856.38;5044106;28;20130;-63
2020/12/03 08:37:17;;;;;;;1999.90;999.90;;;;;;;-1.17;82.19;97855.69;5037645;28;20328;-62
2020/12/03 08:39:50;;;;;;;1999.90;999.90;;;;;;;-0.75;82.24;97864.91;5037213;28;20102;-63
2020/12/03 08:42:16;;;;;;;1999.90;999.90;;;;;;;-0.48;81.74;97862.03;5037709;28;20052;-62
2020/12/03 08:44:43;;;;;;;1999.90;999.90;;;;;;;-0.25;80.72;97870.81;5033924;28;20045;-62
2020/12/03 08:47:23;;;;;;;1999.90;999.90;;;;;;;-0.96;81.99;97874.81;5033892;28;20111;-62
2020/12/03 08:49:50;;;;;;;1999.90;999.90;;;;;;;-0.71;81.90;97876.88;5032635;28;20049;-62
2020/12/03 08:52:19;;;;;;;1999.90;999.90;;;;;;;-0.57;81.86;97879.91;5041112;28;20178;-62
2020/12/03 08:54:47;;;;;;;;;;;;;;;-0.03;80.70;97871.41;5044894;28;20072;-63
2020/12/03 08:57:16;;;;;;;1999.90;999.90;;;;;;;0.24;79.27;97878.53;5034734;28;19927;-62
2020/12/03 08:59:51;;;;;;;1999.90;999.90;;;;;;;0.17;79.58;97872.53;5034340;28;20060;-63
2020/12/03 09:02:20;;;;;;;1999.90;999.90;;;;;;;-0.10;80.32;97884.44;5044528;28;20132;-62
2020/12/03 09:04:53;;;;;;;1999.90;999.90;;;;;;;-0.16;80.32;97880.09;5040566;28;20060;-62
2020/12/03 09:07:27;;;;;;;1999.90;999.90;;;;;;;0.03;80.19;97876.84;5039079;28;20424;-62
2020/12/03 09:09:53;;;;;;;1999.90;999.90;;;;;;;0.52;78.42;97863.59;5040696;28;20123;-63
2020/12/03 09:12:26;;;;;;;1999.90;999.90;;;;;;;0.46;78.76;97863.84;5038233;28;20048;-63
2020/12/03 09:14:55;;;;;;;1999.90;999.90;;;;;;;0.42;78.60;97858.16;5042619;28;20083;-62
2020/12/03 09:17:23;;;;;;;1999.90;999.90;;;;;;;0.88;78.28;97855.41;5043991;28;20045;-62
2020/12/03 09:19:50;;;;;;;1999.90;999.90;;;;;;;0.99;77.22;97861.66;5043666;28;20071;-62
2020/12/03 09:22:18;;;;;;;1999.90;999.90;;;;;;;0.85;77.43;97866.03;5044657;28;20060;-62
2020/12/03 09:24:49;;;;;;;1999.90;999.90;;;;;;;0.97;76.96;97861.13;5029413;28;20060;-62
2020/12/03 09:27:17;;;;;;;1999.90;999.90;;;;;;;0.62;78.54;97851.88;5031159;28;20120;-63
2020/12/03 09:29:51;;;;;;;1999.90;999.90;;;;;;;0.56;77.93;97839.38;5043920;28;20364;-62
2020/12/03 09:32:20;;;;;;;1999.90;999.90;;;;;;;0.72;78.01;97842.09;5043494;28;20470;-62
2020/12/03 09:34:49;;;;;;;1999.90;999.90;;;;;;;0.11;78.36;97841.81;5044344;28;20053;-62
2020/12/03 09:37:15;;;;;;;1999.90;999.90;;;;;;;0.01;80.45;97847.22;5031384;28;20047;-62
2020/12/03 09:39:43;;;;;;;1999.90;999.90;;;;;;;-0.46;80.82;97840.84;5044167;28;20053;-62
2020/12/03 09:42:15;;;;;;;1999.90;999.90;;;;;;;0.42;79.48;97836.41;5044039;28;20048;-62
2020/12/03 09:44:54;;;;;;;1999.90;999.90;;;;;;;0.27;79.46;97823.59;5044028;28;20132;-62
2020/12/03 09:47:25;;;;;;;1999.90;999.90;;;;;;;0.06;81.62;97827.38;5028351;28;20134;-62
2020/12/03 09:49:52;;;;;;;1999.90;999.90;;;;;;;0.26;80.43;97827.41;5034233;28;20049;-62
2020/12/03 09:52:19;;;;;;;1999.90;999.90;;;;;;;0.53;79.66;97826.31;5042537;28;20049;-63
2020/12/03 09:54:48;;;;;;;1999.90;999.90;;;;;;;0.52;79.45;97817.34;5043057;28;20412;-63
2020/12/03 09:57:15;;;;;;;1999.90;999.90;;;;;;;0.66;78.83;97808.63;5034111;28;20584;-64
2020/12/03 09:59:41;;;;;;;1999.90;999.90;;;;;;;0.78;78.70;97811.06;5040428;28;20045;-64
2020/12/03 10:02:14;;;;;;;1999.90;999.90;;;;;;;0.73;78.34;97811.06;5040997;28;20053;-63
2020/12/03 10:05:00;;;;;;;1999.90;999.90;;;;;;;1.04;78.29;97795.47;5035036;28;20052;-64
2020/12/03 10:07:32;;;;;;;1999.90;999.90;;;;;;;0.14;80.15;97791.50;5032529;28;20479;-62
2020/12/03 10:10:20;;;;;;;1999.90;999.90;;;;;;;0.14;81.38;97788.78;5047472;28;20060;-62
2020/12/03 10:13:09;;;;;;;1999.90;999.90;;;;;;;0.35;80.67;97784.97;5047559;28;20056;-62
2020/12/03 10:16:05;;;;;;;1999.90;999.90;;;;;;;0.50;80.21;97772.44;5038559;28;20512;-62
2020/12/03 10:18:44;;;;;;;1999.90;999.90;;;;;;;0.52;80.79;97764.81;5031673;28;20045;-62
2020/12/03 10:21:21;;;;;;;1999.90;999.90;;;;;;;0.03;82.27;97770.84;5034792;28;20596;-62
2020/12/03 10:23:57;;;;;;;1999.90;999.90;;;;;;;0.35;81.26;97771.38;5046743;28;20048;-62
2020/12/03 10:26:33;;;;;;;1999.90;999.90;;;;;;;0.05;82.22;97755.09;5047164;28;20064;-62
2020/12/03 10:29:36;;;;;;;1999.90;999.90;;;;;;;-0.30;83.16;97748.50;5033438;28;20512;-62
2020/12/03 10:32:14;;;;;;;1999.90;999.90;;;;;;;0.13;82.75;97749.09;5046914;28;20633;-62
2020/12/03 10:34:43;;;;;;;1999.90;999.90;;;;;;;-0.05;83.95;97745.00;5046549;28;20567;-62
2020/12/03 10:37:18;;;;;;;1999.90;999.90;;;;;;;0.39;82.71;97736.28;5046464;28;20668;-62
2020/12/03 10:39:52;;;;;;;1999.90;999.90;;;;;;;0.66;81.13;97737.88;5046924;28;20049;-62
2020/12/03 10:42:19;;;;;;;;;;;;;;;0.78;80.83;97734.84;5046586;28;20056;-62
2020/12/03 10:44:54;;;;;;;1999.90;999.90;;;;;;;0.13;82.54;97736.28;5046822;28;20323;-62
2020/12/03 10:47:22;;;;;;;1999.90;999.90;;;;;;;0.44;82.53;97727.31;5046376;28;20045;-62
2020/12/03 10:49:50;;;;;;;1999.90;999.90;;;;;;;-0.21;83.45;97728.69;5046526;28;20056;-63
2020/12/03 10:52:25;;;;;;;1999.90;999.90;;;;;;;-0.59;86.46;97719.13;5046497;28;20492;-63
2020/12/03 10:54:58;;;;;;;1999.90;999.90;;;;;;;0.25;84.81;97727.84;5046231;28;20516;-63
2020/12/03 10:57:25;;;;;;;1999.90;999.90;;;;;;;0.33;83.80;97713.72;5046133;28;20048;-63
2020/12/03 10:59:52;;;;;;;1999.90;999.90;;;;;;;-0.36;85.80;97715.91;5046590;28;20049;-63
2020/12/03 11:02:42;;;;;;;1999.90;999.90;;;;;;;0.08;85.57;97702.88;5046314;28;20575;-63
2020/12/03 11:05:09;;;;;;;1999.90;999.90;;;;;;;-0.87;87.22;97696.78;5046344;28;20064;-63
2020/12/03 11:07:37;;;;;;;1999.90;999.90;;;;;;;-0.51;88.81;97699.56;5046234;28;20390;-63
2020/12/03 11:10:04;;;;;;;1999.90;999.90;;;;;;;-1.32;90.59;97695.56;5046289;28;20049;-62
2020/12/03 11:12:31;;;;;;;1999.90;999.90;;;;;;;-0.61;89.33;97689.53;5045414;28;20098;-62
2020/12/03 11:15:07;;;;;;;1999.90;999.90;;;;;;;-0.63;88.04;97686.25;5045976;28;20130;-63
2020/12/03 11:17:36;;;;;;;1999.90;999.90;;;;;;;-0.38;86.84;97676.50;5046157;28;20048;-63
2020/12/03 11:20:23;;;;;;;1999.90;999.90;;;;;;;-1.03;90.23;97678.81;5046243;28;20156;-63
2020/12/03 11:22:58;;;;;;;1999.90;999.90;;;;;;;-1.13;89.48;97658.72;5034383;28;20061;-63